Time;durP1;ratioP1;P1;durP2;ratioP2;P2;SDS_P1;SDS_P2;PMS_P1;PMS_P2;Temp;Humidity;BMP_temperature;BMP_pressure;BME280_temperature;BME280_humidity;BME280_pressure;Samples;Min_cycle;Max_cycle;Signal;HPM_P1;HPM_P2
2021/12/06 00:01:07;;;;;;;35.70;21.20;;;2.50;99.90;;;;;;5015105;28;20030;-81
2021/12/06 00:03:39;;;;;;;34.60;20.75;;;2.50;99.90;;;;;;5017510;28;20033;-81
2021/12/06 00:06:05;;;;;;;34.10;21.50;;;2.50;99.90;;;;;;5048661;28;20037;-82
2021/12/06 00:08:31;;;;;;;35.30;20.77;;;2.60;99.90;;;;;;5034320;28;20056;-81
2021/12/06 00:10:57;;;;;;;35.88;21.38;;;2.50;99.90;;;;;;5036618;28;20356;-81
2021/12/06 00:13:24;;;;;;;36.10;21.98;;;2.60;99.90;;;;;;5031169;28;20040;-81
2021/12/06 00:15:51;;;;;;;39.72;23.02;;;2.60;99.90;;;;;;5046183;28;20423;-81
2021/12/06 00:18:18;;;;;;;36.63;21.65;;;2.60;99.90;;;;;;5019236;28;20042;-81
2021/12/06 00:20:44;;;;;;;37.08;21.38;;;2.50;99.90;;;;;;5030406;28;20048;-81
2021/12/06 00:23:10;;;;;;;40.13;22.80;;;2.50;99.90;;;;;;5017366;28;20116;-81
2021/12/06 00:25:36;;;;;;;39.90;23.30;;;2.60;99.90;;;;;;5016815;28;20029;-82
2021/12/06 00:28:02;;;;;;;40.20;22.58;;;2.50;99.90;;;;;;5028826;28;20072;-81
2021/12/06 00:30:28;;;;;;;41.70;23.27;;;2.50;99.90;;;;;;5020482;28;20400;-81
2021/12/06 00:32:56;;;;;;;38.92;22.75;;;2.50;99.90;;;;;;5032223;28;20032;-81
2021/12/06 00:35:25;;;;;;;44.58;25.23;;;2.60;99.90;;;;;;5019621;28;20053;-81
2021/12/06 00:37:58;;;;;;;45.70;24.40;;;2.50;99.90;;;;;;5046737;28;20396;-82
2021/12/06 00:40:32;;;;;;;46.70;24.50;;;2.60;99.90;;;;;;5031122;28;20307;-81
2021/12/06 00:42:59;;;;;;;48.13;24.92;;;2.50;99.90;;;;;;5019741;28;20159;-81
2021/12/06 00:45:25;;;;;;;45.45;25.08;;;2.50;99.90;;;;;;5018710;28;20512;-81
2021/12/06 00:47:51;;;;;;;44.05;25.23;;;2.60;99.90;;;;;;5027798;28;20063;-81
2021/12/06 00:50:18;;;;;;;47.40;26.45;;;2.60;99.90;;;;;;5028690;28;20121;-81
2021/12/06 00:52:46;;;;;;;45.65;25.23;;;2.50;99.90;;;;;;5032012;28;20053;-81
2021/12/06 00:55:13;;;;;;;42.45;24.77;;;2.60;99.90;;;;;;5032325;28;20099;-81
2021/12/06 00:57:40;;;;;;;49.60;25.88;;;2.50;99.90;;;;;;5032955;28;20532;-81
2021/12/06 01:00:11;;;;;;;50.15;26.67;;;2.60;99.90;;;;;;5017333;28;20048;-81
2021/12/06 01:02:37;;;;;;;48.95;27.48;;;2.60;99.90;;;;;;5028885;28;20502;-81
2021/12/06 01:05:04;;;;;;;44.92;25.15;;;2.50;99.90;;;;;;5031023;28;20041;-81
2021/12/06 01:07:30;;;;;;;49.03;26.85;;;2.50;99.90;;;;;;5017149;28;20491;-81
2021/12/06 01:09:56;;;;;;;49.38;26.33;;;2.50;99.90;;;;;;5042888;28;20061;-82
2021/12/06 01:12:21;;;;;;;50.63;28.02;;;2.60;99.90;;;;;;5029192;28;20029;-81
2021/12/06 01:14:47;;;;;;;46.20;27.02;;;2.60;99.90;;;;;;5043152;28;20069;-81
2021/12/06 01:17:13;;;;;;;54.13;27.80;;;2.60;99.90;;;;;;5031063;28;20380;-81
2021/12/06 01:19:39;;;;;;;50.22;27.25;;;2.60;99.90;;;;;;5014809;28;20071;-81
2021/12/06 01:22:23;;;;;;;52.20;26.70;;;2.60;99.90;;;;;;5021087;28;20144;-81
2021/12/06 01:25:03;;;;;;;54.72;27.02;;;2.50;99.90;;;;;;5017834;28;20085;-81
2021/12/06 01:40:59;;;;;;;57.92;28.27;;;2.60;99.90;;;;;;5030277;28;20037;-81
2021/12/06 01:43:25;;;;;;;60.08;29.00;;;2.50;99.90;;;;;;5017742;28;20815;-81
2021/12/06 01:45:50;;;;;;;55.95;28.70;;;2.70;99.90;;;;;;5029053;28;20071;-81
2021/12/06 01:48:16;;;;;;;60.40;30.55;;;2.70;99.90;;;;;;5020085;28;20464;-81
2021/12/06 01:50:42;;;;;;;54.38;29.38;;;2.70;99.90;;;;;;5016954;28;20534;-80
2021/12/06 01:53:07;;;;;;;60.40;28.48;;;2.70;99.90;;;;;;5013753;28;21252;-81
2021/12/06 01:55:36;;;;;;;58.50;28.63;;;2.60;99.90;;;;;;5015701;28;20038;-81
2021/12/06 01:58:06;;;;;;;57.70;28.35;;;2.60;99.90;;;;;;5030979;28;20045;-81
2021/12/06 02:00:43;;;;;;;56.15;28.40;;;2.60;99.90;;;;;;5013093;28;20064;-82
2021/12/06 02:03:09;;;;;;;61.97;28.75;;;2.60;99.90;;;;;;5043158;28;20029;-81
2021/12/06 02:05:36;;;;;;;58.95;29.63;;;2.60;99.90;;;;;;5029657;28;20132;-81
2021/12/06 02:08:02;;;;;;;62.35;28.48;;;2.60;99.90;;;;;;5046263;28;20170;-81
2021/12/06 02:10:28;;;;;;;62.00;30.92;;;2.60;99.90;;;;;;5014706;28;20170;-81
2021/12/06 02:12:56;;;;;;;64.88;29.83;;;2.60;99.90;;;;;;5030884;28;20047;-81
2021/12/06 02:18:03;;;;;;;58.60;29.15;;;2.60;99.90;;;;;;5030843;28;20045;-81
2021/12/06 02:20:30;;;;;;;60.33;29.95;;;2.70;99.90;;;;;;5027432;28;20502;-81
2021/12/06 02:22:57;;;;;;;55.47;27.25;;;2.70;99.90;;;;;;5014729;28;20296;-81
2021/12/06 02:25:23;;;;;;;60.90;28.75;;;2.70;99.90;;;;;;5034871;28;20493;-81
2021/12/06 02:27:52;;;;;;;58.53;29.13;;;2.70;99.90;;;;;;5015265;28;20086;-81
2021/12/06 02:30:19;;;;;;;54.58;28.35;;;2.60;99.90;;;;;;5045034;28;20438;-81
2021/12/06 02:32:47;;;;;;;54.53;28.92;;;2.70;99.90;;;;;;5047252;28;20041;-81
2021/12/06 02:35:16;;;;;;;57.22;27.42;;;2.70;99.90;;;;;;5046920;28;20072;-81
2021/12/06 02:37:42;;;;;;;61.05;30.48;;;2.70;99.90;;;;;;5012614;28;20040;-81
2021/12/06 02:40:21;;;;;;;57.80;29.88;;;2.60;99.90;;;;;;5045940;28;20052;-81
2021/12/06 02:42:48;;;;;;;57.45;28.02;;;2.60;99.90;;;;;;5018237;28;20039;-81
2021/12/06 02:45:17;;;;;;;56.72;28.25;;;2.60;99.90;;;;;;5028347;28;20060;-81
2021/12/06 02:47:44;;;;;;;61.78;30.52;;;2.60;99.90;;;;;;5018024;28;20047;-81
2021/12/06 02:50:11;;;;;;;58.50;29.33;;;2.60;99.90;;;;;;5015014;28;20336;-81
2021/12/06 02:52:39;;;;;;;60.65;29.95;;;2.60;99.90;;;;;;5033375;28;20041;-82
2021/12/06 02:55:26;;;;;;;67.72;30.83;;;2.70;99.90;;;;;;5032878;28;20422;-81
2021/12/06 02:57:55;;;;;;;63.38;30.70;;;2.70;99.90;;;;;;5012717;28;20487;-81
2021/12/06 03:00:22;;;;;;;65.05;30.25;;;2.70;99.90;;;;;;5013185;28;20052;-81
2021/12/06 03:02:47;;;;;;;72.53;32.53;;;2.60;99.90;;;;;;5028609;28;20041;-81
2021/12/06 03:05:13;;;;;;;63.15;30.67;;;2.60;99.90;;;;;;5012864;28;20043;-81
2021/12/06 03:07:39;;;;;;;61.53;30.70;;;2.70;99.90;;;;;;5032260;28;20052;-81
2021/12/06 03:10:08;;;;;;;60.70;28.77;;;2.60;99.90;;;;;;5018337;28;20061;-81
2021/12/06 03:12:34;;;;;;;57.08;28.98;;;2.60;99.90;;;;;;5036594;28;20032;-81
2021/12/06 03:15:03;;;;;;;61.30;29.40;;;2.70;99.90;;;;;;5033333;28;20037;-81
2021/12/06 03:17:30;;;;;;;54.25;28.25;;;2.70;99.90;;;;;;5023009;28;20033;-81
2021/12/06 03:19:57;;;;;;;56.25;28.05;;;2.70;99.90;;;;;;5030937;28;20049;-81
2021/12/06 03:22:23;;;;;;;56.00;29.00;;;2.60;99.90;;;;;;5036874;28;20075;-81
2021/12/06 03:24:49;;;;;;;56.75;27.90;;;2.70;99.90;;;;;;5032751;28;20025;-81
2021/12/06 03:27:16;;;;;;;55.47;27.98;;;2.70;99.90;;;;;;5022529;28;20036;-81
2021/12/06 03:29:42;;;;;;;52.08;26.52;;;2.60;99.90;;;;;;5039195;28;20463;-81
2021/12/06 03:32:10;;;;;;;46.58;24.13;;;2.80;99.90;;;;;;5019420;28;20092;-81
2021/12/06 03:34:36;;;;;;;50.20;25.33;;;2.70;99.90;;;;;;5031963;28;20064;-81
2021/12/06 03:37:05;;;;;;;52.45;24.60;;;2.70;99.90;;;;;;5031488;28;20071;-81
2021/12/06 03:39:39;;;;;;;52.28;25.92;;;2.80;99.90;;;;;;5021839;28;20499;-81
2021/12/06 03:42:07;;;;;;;49.00;25.77;;;2.60;99.90;;;;;;5032723;28;20038;-81
2021/12/06 03:44:34;;;;;;;50.88;26.27;;;2.70;99.90;;;;;;5039790;28;20045;-81
2021/12/06 03:47:11;;;;;;;48.22;26.00;;;2.60;99.90;;;;;;5019124;28;20034;-81
2021/12/06 03:49:38;;;;;;;53.75;26.60;;;2.70;99.90;;;;;;5031990;28;20056;-81
2021/12/06 03:52:05;;;;;;;52.67;26.15;;;2.80;99.90;;;;;;5030577;28;20503;-81
2021/12/06 03:54:32;;;;;;;53.15;25.17;;;2.80;99.90;;;;;;5019757;28;20037;-82
2021/12/06 03:56:59;;;;;;;51.95;25.33;;;2.70;99.90;;;;;;5018255;28;20428;-81
2021/12/06 03:59:25;;;;;;;52.92;26.38;;;2.60;99.90;;;;;;5030045;28;20137;-81
2021/12/06 04:01:52;;;;;;;54.88;26.63;;;2.70;99.90;;;;;;5031669;28;20111;-81
2021/12/06 04:04:18;;;;;;;54.20;27.05;;;2.70;99.90;;;;;;5032264;28;20033;-82
2021/12/06 04:06:44;;;;;;;54.88;26.38;;;2.70;99.90;;;;;;5036934;28;20457;-81
2021/12/06 04:09:13;;;;;;;58.88;28.13;;;2.70;99.90;;;;;;5021098;28;20040;-81
2021/12/06 04:11:39;;;;;;;59.33;27.83;;;2.80;99.90;;;;;;5050567;28;20037;-81
2021/12/06 04:14:06;;;;;;;63.90;29.65;;;2.80;99.90;;;;;;5031648;28;20538;-80
2021/12/06 04:16:33;;;;;;;57.28;27.60;;;2.80;99.90;;;;;;5020575;28;20032;-81
2021/12/06 04:18:58;;;;;;;60.90;28.77;;;2.80;99.90;;;;;;5027585;28;20478;-81
2021/12/06 04:21:26;;;;;;;59.85;29.33;;;2.70;99.90;;;;;;5035052;28;20499;-81
2021/12/06 04:23:53;;;;;;;62.67;29.05;;;2.80;99.90;;;;;;5030439;28;20436;-81
2021/12/06 04:26:19;;;;;;;56.92;27.52;;;2.70;99.90;;;;;;5035789;28;20021;-81
2021/12/06 04:28:49;;;;;;;66.75;30.33;;;2.70;99.90;;;;;;5035187;28;20041;-81
2021/12/06 04:31:16;;;;;;;57.13;29.10;;;2.70;99.90;;;;;;5014396;28;20049;-81
2021/12/06 04:33:42;;;;;;;59.25;28.30;;;2.70;99.90;;;;;;5017244;28;20076;-81
2021/12/06 04:36:08;;;;;;;61.53;27.17;;;2.80;99.90;;;;;;5035685;28;20035;-81
2021/12/06 04:38:34;;;;;;;60.67;28.52;;;2.80;99.90;;;;;;5031392;28;20175;-81
2021/12/06 04:41:01;;;;;;;59.72;27.05;;;2.80;99.90;;;;;;5028900;28;20462;-82
2021/12/06 04:43:26;;;;;;;58.15;28.10;;;2.80;99.90;;;;;;5030134;28;20253;-81
2021/12/06 04:45:52;;;;;;;60.85;28.70;;;2.80;99.90;;;;;;5029528;28;20530;-80
2021/12/06 04:48:18;;;;;;;57.05;28.05;;;2.70;99.90;;;;;;5033557;28;20146;-81
2021/12/06 04:50:44;;;;;;;59.20;26.80;;;2.80;99.90;;;;;;5036567;28;20052;-81
2021/12/06 04:53:24;;;;;;;57.70;27.10;;;2.70;99.90;;;;;;5048818;28;20147;-81
2021/12/06 04:55:54;;;;;;;58.72;28.02;;;2.70;99.90;;;;;;5033675;28;20086;-81
2021/12/06 04:58:25;;;;;;;56.35;27.48;;;2.90;99.90;;;;;;5045794;28;20116;-81
2021/12/06 05:01:07;;;;;;;57.63;27.38;;;2.70;99.90;;;;;;5029720;28;20275;-81
2021/12/06 05:03:36;;;;;;;60.55;27.73;;;2.80;99.90;;;;;;5036594;28;20472;-81
2021/12/06 05:06:07;;;;;;;54.80;26.92;;;2.90;99.90;;;;;;5035341;28;20071;-81
2021/12/06 05:08:38;;;;;;;60.30;27.35;;;2.90;99.90;;;;;;5016090;28;20116;-81
2021/12/06 05:11:07;;;;;;;58.83;27.73;;;2.80;99.90;;;;;;5031293;28;20032;-81
2021/12/06 05:13:35;;;;;;;61.42;27.27;;;2.70;99.90;;;;;;5011378;28;20140;-81
2021/12/06 05:16:01;;;;;;;58.42;27.70;;;2.80;99.90;;;;;;5015443;28;20103;-82
2021/12/06 05:18:27;;;;;;;60.75;28.13;;;2.80;99.90;;;;;;5029755;28;20033;-81
2021/12/06 05:20:53;;;;;;;58.75;27.15;;;2.80;99.90;;;;;;5017900;28;20445;-80
2021/12/06 05:23:19;;;;;;;58.45;26.73;;;2.70;99.90;;;;;;5031053;28;20051;-81
2021/12/06 05:25:45;;;;;;;58.58;26.30;;;2.80;99.90;;;;;;5031587;28;20128;-81
2021/12/06 05:28:13;;;;;;;60.90;28.65;;;2.90;99.90;;;;;;5027124;28;20128;-81
2021/12/06 05:30:40;;;;;;;59.03;25.55;;;2.80;99.90;;;;;;5017627;28;20037;-81
2021/12/06 05:33:07;;;;;;;65.00;27.40;;;2.80;99.90;;;;;;5021251;28;20063;-81
2021/12/06 05:35:33;;;;;;;62.28;26.83;;;2.90;99.90;;;;;;5043991;28;20187;-81
2021/12/06 05:38:00;;;;;;;58.28;26.63;;;2.80;99.90;;;;;;5029975;28;20495;-82
2021/12/06 05:40:33;;;;;;;66.57;27.75;;;2.80;99.90;;;;;;5016691;28;20029;-82
2021/12/06 05:43:00;;;;;;;56.38;25.80;;;2.80;99.90;;;;;;5017234;28;20045;-81
2021/12/06 05:45:28;;;;;;;62.80;27.00;;;2.90;99.90;;;;;;5045039;28;20142;-81
2021/12/06 05:47:55;;;;;;;57.90;26.88;;;2.90;99.90;;;;;;5030867;28;20474;-81
2021/12/06 05:50:23;;;;;;;62.67;28.08;;;2.80;99.90;;;;;;5014907;28;20837;-81
2021/12/06 05:52:52;;;;;;;58.55;28.30;;;2.90;99.90;;;;;;5043771;28;20595;-81
2021/12/06 05:55:18;;;;;;;56.53;26.48;;;2.90;99.90;;;;;;5010308;28;20112;-81
2021/12/06 05:57:46;;;;;;;62.08;27.35;;;2.90;99.90;;;;;;5029576;28;20233;-81
2021/12/06 06:00:15;;;;;;;65.85;27.58;;;2.90;99.90;;;;;;5028871;28;20481;-81
2021/12/06 06:02:41;;;;;;;63.45;28.15;;;2.90;99.90;;;;;;5032694;28;20040;-81
2021/12/06 06:05:08;;;;;;;60.35;25.67;;;2.80;99.90;;;;;;5016580;28;20386;-81
2021/12/06 06:07:33;;;;;;;64.25;27.70;;;2.90;99.90;;;;;;5031870;28;20104;-81
2021/12/06 06:09:59;;;;;;;60.97;25.65;;;2.90;99.90;;;;;;5025781;28;20120;-81
2021/12/06 06:12:25;;;;;;;61.78;27.20;;;2.90;99.90;;;;;;5028185;28;20035;-81
2021/12/06 06:14:51;;;;;;;56.95;25.52;;;2.80;99.90;;;;;;5032587;28;20844;-81
2021/12/06 06:17:19;;;;;;;59.85;25.60;;;2.90;99.90;;;;;;5019068;28;20052;-82
2021/12/06 06:19:53;;;;;;;61.15;26.65;;;2.90;99.90;;;;;;5044396;28;20095;-82
2021/12/06 06:22:19;;;;;;;68.82;27.45;;;2.80;99.90;;;;;;5015322;28;20037;-81
2021/12/06 06:24:46;;;;;;;62.88;27.52;;;2.90;99.90;;;;;;5028666;28;20135;-81
2021/12/06 06:27:12;;;;;;;72.70;27.85;;;2.80;99.90;;;;;;5029148;28;20041;-81
2021/12/06 06:29:37;;;;;;;66.72;27.27;;;2.80;99.90;;;;;;5028803;28;20045;-81
2021/12/06 06:32:04;;;;;;;64.90;26.85;;;2.90;99.90;;;;;;5044589;28;20044;-81
2021/12/06 06:34:30;;;;;;;63.90;26.35;;;2.80;99.90;;;;;;5028231;28;20507;-81
2021/12/06 06:36:59;;;;;;;59.90;25.25;;;2.90;99.90;;;;;;5011907;28;20391;-81
2021/12/06 06:39:24;;;;;;;62.05;25.00;;;2.80;99.90;;;;;;5041868;28;20080;-82
2021/12/06 06:41:51;;;;;;;59.88;25.63;;;2.90;99.90;;;;;;5033573;28;20135;-81
2021/12/06 06:44:18;;;;;;;61.28;24.95;;;2.80;99.90;;;;;;5015411;28;20044;-82
2021/12/06 06:46:45;;;;;;;61.25;25.42;;;2.80;99.90;;;;;;5035927;28;20412;-81
2021/12/06 06:49:12;;;;;;;61.28;26.23;;;2.80;99.90;;;;;;5031502;28;20037;-81
2021/12/06 06:51:39;;;;;;;62.72;26.48;;;2.80;99.90;;;;;;5031167;28;20037;-81
2021/12/06 06:54:05;;;;;;;67.10;27.45;;;2.90;99.90;;;;;;5012372;28;20045;-81
2021/12/06 06:56:31;;;;;;;63.78;27.33;;;2.90;99.90;;;;;;5016855;28;20124;-81
2021/12/06 06:58:57;;;;;;;68.13;26.60;;;2.80;99.90;;;;;;5031526;28;20400;-82
2021/12/06 07:01:24;;;;;;;66.82;26.80;;;2.90;99.90;;;;;;5028184;28;20051;-81
2021/12/06 07:03:53;;;;;;;69.50;27.65;;;2.80;99.90;;;;;;5015899;28;20045;-81
2021/12/06 07:06:26;;;;;;;69.90;27.13;;;2.80;99.90;;;;;;5029258;28;20044;-82
2021/12/06 07:08:54;;;;;;;64.90;27.10;;;2.80;99.90;;;;;;5016298;28;20052;-81
2021/12/06 07:11:24;;;;;;;68.97;27.08;;;2.80;99.90;;;;;;5030543;28;20068;-81
2021/12/06 07:13:50;;;;;;;63.63;27.58;;;2.80;99.90;;;;;;5045430;28;20090;-81
2021/12/06 07:16:17;;;;;;;64.88;26.33;;;2.80;99.90;;;;;;5016365;28;20053;-81
2021/12/06 07:18:43;;;;;;;69.28;26.65;;;2.80;99.90;;;;;;5047248;28;20041;-82
2021/12/06 07:21:10;;;;;;;68.88;28.65;;;2.90;99.90;;;;;;5013254;28;20557;-82
2021/12/06 07:23:39;;;;;;;68.07;26.75;;;2.90;99.90;;;;;;5015857;28;20033;-81
2021/12/06 07:26:07;;;;;;;72.80;28.55;;;2.90;99.90;;;;;;5026208;28;20292;-82
2021/12/06 07:28:33;;;;;;;69.53;27.95;;;2.80;99.90;;;;;;5024230;28;20121;-79
2021/12/06 07:30:59;;;;;;;72.55;28.23;;;2.90;99.90;;;;;;5027492;28;20040;-81
2021/12/06 07:33:31;;;;;;;75.80;27.90;;;2.80;99.90;;;;;;5035826;28;20470;-81
2021/12/06 07:35:57;;;;;;;71.90;29.70;;;2.80;99.90;;;;;;5031132;28;20142;-81
2021/12/06 07:38:22;;;;;;;67.05;29.10;;;2.80;99.90;;;;;;5028995;28;20053;-81
2021/12/06 07:40:50;;;;;;;76.75;28.67;;;2.90;99.90;;;;;;5027515;28;20376;-81
2021/12/06 07:43:19;;;;;;;76.45;27.77;;;2.90;99.90;;;;;;5032992;28;20119;-81
2021/12/06 07:45:45;;;;;;;77.38;28.10;;;2.90;99.90;;;;;;5028556;28;20114;-82
2021/12/06 07:48:12;;;;;;;73.57;27.27;;;3.00;99.90;;;;;;5037638;28;20461;-82
2021/12/06 07:50:38;;;;;;;71.03;28.05;;;2.90;99.90;;;;;;5027736;28;20056;-81
2021/12/06 07:53:04;;;;;;;67.90;26.83;;;2.80;99.90;;;;;;5030168;28;20348;-82
2021/12/06 07:55:34;;;;;;;68.47;28.73;;;2.90;99.90;;;;;;5019996;28;20033;-81
2021/12/06 07:58:09;;;;;;;66.30;25.95;;;3.00;99.90;;;;;;5020335;28;20052;-81
2021/12/06 08:00:39;;;;;;;67.85;27.30;;;2.90;99.90;;;;;;5033180;28;20041;-81
2021/12/06 08:03:08;;;;;;;67.22;26.63;;;3.10;99.90;;;;;;5029757;28;20037;-82
2021/12/06 08:05:37;;;;;;;64.60;25.63;;;3.00;99.90;;;;;;5020334;28;20071;-81
2021/12/06 08:08:06;;;;;;;68.45;26.70;;;2.90;99.90;;;;;;5016725;28;20037;-81
2021/12/06 08:10:37;;;;;;;66.75;26.35;;;3.00;99.90;;;;;;5031889;28;20041;-81
2021/12/06 08:13:04;;;;;;;69.28;27.40;;;3.10;99.90;;;;;;5020418;28;20125;-81
2021/12/06 08:15:31;;;;;;;74.65;27.52;;;3.00;99.90;;;;;;5015621;28;20051;-82
2021/12/06 08:17:57;;;;;;;69.97;26.20;;;3.10;99.90;;;;;;5037891;28;20455;-82
2021/12/06 08:20:23;;;;;;;69.38;26.75;;;3.00;99.90;;;;;;5034008;28;20623;-81
2021/12/06 08:22:51;;;;;;;62.92;26.10;;;3.10;99.90;;;;;;5034668;28;20244;-82
2021/12/06 08:25:18;;;;;;;70.45;28.38;;;3.00;99.90;;;;;;5017839;28;20456;-81
2021/12/06 08:27:44;;;;;;;73.18;28.40;;;3.00;99.90;;;;;;5031984;28;20033;-81
2021/12/06 08:30:12;;;;;;;69.55;28.25;;;3.00;99.90;;;;;;5030933;28;20106;-81
2021/12/06 08:32:38;;;;;;;66.00;27.23;;;3.20;99.90;;;;;;5020725;28;20072;-81
2021/12/06 08:35:06;;;;;;;72.07;26.85;;;3.20;99.90;;;;;;5023865;28;20076;-81
2021/12/06 08:37:32;;;;;;;67.72;26.08;;;3.20;99.90;;;;;;5029594;28;20120;-81
2021/12/06 08:39:58;;;;;;;65.78;26.05;;;3.20;99.90;;;;;;5018669;28;20124;-81
2021/12/06 08:42:24;;;;;;;56.03;24.25;;;3.20;99.90;;;;;;5035037;28;20035;-81
2021/12/06 08:44:50;;;;;;;65.03;26.38;;;3.30;99.90;;;;;;5031605;28;20120;-81
2021/12/06 08:47:17;;;;;;;64.45;25.58;;;3.20;99.90;;;;;;5021083;28;20037;-81
2021/12/06 08:49:44;;;;;;;57.15;25.90;;;3.30;99.90;;;;;;5030466;28;20099;-82
2021/12/06 08:52:10;;;;;;;59.20;25.50;;;3.40;99.90;;;;;;5030760;28;20380;-81
2021/12/06 08:54:36;;;;;;;60.58;26.05;;;3.40;99.90;;;;;;5036818;28;20048;-81
2021/12/06 08:57:04;;;;;;;50.72;23.65;;;3.50;99.90;;;;;;5018942;28;20033;-81
2021/12/06 08:59:30;;;;;;;53.60;23.58;;;3.40;99.90;;;;;;5020245;28;20170;-82
2021/12/06 09:01:57;;;;;;;48.30;21.35;;;3.40;99.90;;;;;;5034702;28;20033;-81
2021/12/06 09:04:27;;;;;;;47.30;21.40;;;3.40;99.90;;;;;;5029287;28;20106;-81
2021/12/06 09:06:55;;;;;;;48.53;21.77;;;3.40;99.90;;;;;;5032412;28;20117;-81
2021/12/06 09:09:27;;;;;;;47.40;21.05;;;3.50;99.90;;;;;;5030137;28;20036;-81
2021/12/06 09:11:54;;;;;;;45.65;21.42;;;3.70;99.90;;;;;;5038509;28;20065;-81
2021/12/06 09:14:19;;;;;;;51.03;23.17;;;3.60;99.90;;;;;;5029161;28;20543;-81
2021/12/06 09:16:46;;;;;;;50.15;22.63;;;3.70;99.90;;;;;;5051376;28;20274;-82
2021/12/06 09:19:15;;;;;;;44.08;20.95;;;3.90;99.90;;;;;;5019622;28;20120;-81
2021/12/06 09:21:43;;;;;;;45.10;20.38;;;3.90;99.90;;;;;;5036973;28;20041;-81
2021/12/06 09:24:14;;;;;;;38.28;20.70;;;4.00;99.90;;;;;;5018327;28;20416;-81
2021/12/06 09:26:40;;;;;;;35.65;18.00;;;3.90;99.90;;;;;;5034271;28;20029;-81
2021/12/06 09:29:06;;;;;;;39.00;19.20;;;4.00;99.90;;;;;;5014738;28;20041;-82
2021/12/06 09:31:33;;;;;;;38.97;19.05;;;3.80;99.90;;;;;;5016748;28;20624;-81
2021/12/06 09:33:59;;;;;;;41.15;20.60;;;3.90;99.90;;;;;;5021056;28;20132;-81
2021/12/06 09:36:28;;;;;;;38.63;19.08;;;4.00;99.90;;;;;;5014856;28;20041;-81
2021/12/06 09:38:54;;;;;;;39.83;18.65;;;4.00;99.90;;;;;;5034293;28;20038;-81
2021/12/06 09:41:24;;;;;;;40.95;19.77;;;4.00;99.90;;;;;;5029574;28;20067;-82
2021/12/06 09:43:52;;;;;;;35.90;18.63;;;4.10;99.90;;;;;;5013637;28;20059;-81
2021/12/06 09:46:19;;;;;;;38.50;19.40;;;4.00;99.90;;;;;;5021402;28;20045;-81
2021/12/06 09:48:47;;;;;;;35.38;19.10;;;4.10;99.90;;;;;;5028493;28;20429;-81
2021/12/06 09:51:17;;;;;;;35.03;18.42;;;4.00;99.90;;;;;;5035156;23;20031;-81
2021/12/06 09:53:46;;;;;;;37.25;18.40;;;3.70;99.90;;;;;;4984666;28;20051;-81
2021/12/06 09:56:16;;;;;;;39.63;20.25;;;3.60;99.90;;;;;;4979801;28;20398;-81
2021/12/06 09:58:42;;;;;;;35.92;17.85;;;3.50;99.90;;;;;;4983651;28;20049;-81
2021/12/06 10:01:22;;;;;;;34.45;18.10;;;3.30;99.90;;;;;;4966324;28;20044;-81
2021/12/06 10:03:53;;;;;;;38.60;19.73;;;3.40;99.90;;;;;;5005195;28;20112;-82
2021/12/06 10:06:19;;;;;;;38.97;19.33;;;3.30;99.90;;;;;;4985281;28;20037;-81
2021/12/06 10:08:49;;;;;;;36.60;18.98;;;3.30;99.90;;;;;;4987016;28;20053;-81
2021/12/06 10:11:20;;;;;;;37.35;18.50;;;3.40;99.90;;;;;;4983258;28;20093;-81
2021/12/06 10:13:50;;;;;;;38.58;19.88;;;3.40;99.90;;;;;;4989874;28;20049;-81
2021/12/06 10:16:15;;;;;;;37.78;18.83;;;3.30;99.90;;;;;;4988403;28;20507;-81
2021/12/06 10:18:42;;;;;;;34.17;17.83;;;3.20;99.90;;;;;;4986359;28;20038;-81
2021/12/06 10:21:09;;;;;;;39.42;20.05;;;3.20;99.90;;;;;;4969777;28;20428;-81
2021/12/06 10:23:37;;;;;;;36.80;19.92;;;3.30;99.90;;;;;;4971616;28;20088;-81
2021/12/06 10:26:07;;;;;;;38.72;19.40;;;3.50;99.90;;;;;;4985157;28;20500;-82
2021/12/06 10:28:35;;;;;;;34.88;18.33;;;3.40;99.90;;;;;;4981494;28;20038;-81
2021/12/06 10:31:05;;;;;;;34.95;18.67;;;3.50;99.90;;;;;;5003491;28;20037;-81
2021/12/06 10:33:42;;;;;;;37.10;19.58;;;3.50;99.90;;;;;;4984255;28;20056;-81
2021/12/06 10:36:13;;;;;;;35.25;18.33;;;3.50;99.90;;;;;;4968340;28;20482;-81
2021/12/06 10:38:47;;;;;;;36.78;19.30;;;3.50;99.90;;;;;;4985289;28;20042;-81
2021/12/06 10:41:18;;;;;;;33.90;17.85;;;3.60;99.90;;;;;;4967827;28;20557;-81
2021/12/06 10:44:11;;;;;;;37.00;18.10;;;3.50;99.90;;;;;;4967874;28;20037;-81
2021/12/06 10:46:49;;;;;;;35.17;18.35;;;3.50;99.90;;;;;;4969870;28;20288;-81
2021/12/06 10:49:21;;;;;;;35.08;18.30;;;3.50;99.90;;;;;;4969152;28;20096;-82
2021/12/06 10:51:47;;;;;;;39.65;19.13;;;3.50;99.90;;;;;;4967283;28;20058;-81
2021/12/06 10:54:20;;;;;;;41.72;19.95;;;3.60;99.90;;;;;;4969827;28;20136;-81
2021/12/06 10:56:51;;;;;;;42.05;21.20;;;3.60;99.90;;;;;;4970886;28;20046;-82
2021/12/06 10:59:22;;;;;;;54.58;25.85;;;3.60;99.90;;;;;;4979966;28;20050;-81
2021/12/06 11:01:50;;;;;;;47.35;22.88;;;3.50;99.90;;;;;;4981253;28;20129;-81
2021/12/06 11:04:19;;;;;;;45.13;23.13;;;3.50;99.90;;;;;;4978589;28;20102;-81
2021/12/06 11:06:50;;;;;;;46.03;23.55;;;3.50;99.90;;;;;;4964458;28;20049;-81
2021/12/06 11:09:28;;;;;;;47.55;23.48;;;3.50;99.90;;;;;;4966069;28;20141;-81
2021/12/06 11:11:58;;;;;;;43.25;21.67;;;3.60;99.90;;;;;;4972358;28;20034;-81
2021/12/06 11:14:38;;;;;;;42.30;21.52;;;3.50;99.90;;;;;;4982295;28;20046;-81
2021/12/06 11:17:07;;;;;;;41.58;21.85;;;3.50;99.90;;;;;;4982878;28;20049;-81
2021/12/06 11:19:34;;;;;;;44.33;21.95;;;3.60;99.90;;;;;;4999396;28;20156;-81
2021/12/06 11:22:03;;;;;;;41.65;20.95;;;3.60;99.90;;;;;;4967453;28;20222;-81
2021/12/06 11:24:39;;;;;;;41.85;21.88;;;3.60;99.90;;;;;;4975774;28;20199;-81
2021/12/06 11:27:22;;;;;;;41.30;21.92;;;3.60;99.90;;;;;;4966410;28;20056;-81
2021/12/06 11:29:52;;;;;;;42.17;20.98;;;3.60;99.90;;;;;;4984196;28;20736;-81
2021/12/06 11:32:27;;;;;;;38.03;20.40;;;3.70;99.90;;;;;;4984211;28;20053;-82
2021/12/06 11:35:18;;;;;;;40.13;20.48;;;3.70;99.90;;;;;;4987304;28;20053;-81
2021/12/06 11:37:51;;;;;;;41.08;22.00;;;3.80;99.90;;;;;;4984614;28;20515;-80
2021/12/06 11:40:20;;;;;;;39.60;20.08;;;3.70;99.90;;;;;;4982903;28;20042;-81
2021/12/06 11:43:07;;;;;;;35.05;19.58;;;3.60;99.90;;;;;;4984798;28;20033;-81
2021/12/06 11:45:50;;;;;;;36.33;19.02;;;3.50;99.90;;;;;;4969720;28;20501;-81
2021/12/06 11:48:29;;;;;;;31.17;16.80;;;3.60;99.90;;;;;;4971877;28;20191;-81
2021/12/06 11:51:03;;;;;;;26.77;15.65;;;3.50;99.90;;;;;;5003859;28;20034;-81
2021/12/06 11:53:35;;;;;;;29.95;15.60;;;3.60;99.90;;;;;;4968656;28;20045;-81
2021/12/06 11:56:09;;;;;;;26.30;14.98;;;3.60;99.90;;;;;;4984616;28;20034;-81
2021/12/06 11:58:54;;;;;;;26.25;14.77;;;3.60;99.90;;;;;;4960439;28;20568;-81
2021/12/06 12:01:34;;;;;;;27.85;15.88;;;3.60;99.90;;;;;;4973574;28;20398;-81
2021/12/06 12:04:05;;;;;;;26.80;15.65;;;3.60;99.90;;;;;;4973351;28;20033;-82
2021/12/06 12:06:43;;;;;;;31.55;16.27;;;3.80;99.90;;;;;;4987114;28;20109;-82
2021/12/06 12:09:25;;;;;;;32.10;17.00;;;3.80;99.90;;;;;;4973355;28;20042;-81
2021/12/06 12:12:07;;;;;;;31.98;16.50;;;3.80;99.90;;;;;;4986305;28;20081;-81
2021/12/06 12:14:37;;;;;;;30.95;17.92;;;3.80;99.90;;;;;;4981549;28;20384;-81
2021/12/06 12:17:16;;;;;;;33.47;17.70;;;3.80;99.90;;;;;;5003878;28;20044;-81
2021/12/06 12:19:46;;;;;;;36.55;18.10;;;3.80;99.90;;;;;;4987026;28;20501;-81
2021/12/06 12:22:14;;;;;;;34.53;18.73;;;3.80;99.90;;;;;;4987198;28;20454;-81
2021/12/06 12:24:43;;;;;;;32.28;17.17;;;3.90;99.90;;;;;;4968091;28;20564;-81
2021/12/06 12:29:54;;;;;;;34.13;18.08;;;4.00;99.90;;;;;;5000858;28;20600;-81
2021/12/06 12:32:21;;;;;;;33.15;17.92;;;3.90;99.90;;;;;;4998796;28;20092;-81
2021/12/06 12:34:51;;;;;;;34.22;19.63;;;4.10;99.90;;;;;;4983351;28;20114;-81
2021/12/06 12:37:19;;;;;;;32.83;17.65;;;4.20;99.90;;;;;;4954705;28;20332;-81
2021/12/06 12:40:05;;;;;;;32.47;17.63;;;4.00;99.90;;;;;;4949817;28;20133;-82
2021/12/06 12:42:33;;;;;;;33.60;16.70;;;4.10;99.90;;;;;;4968017;28;20045;-81
2021/12/06 12:45:00;;;;;;;31.77;17.17;;;3.90;99.90;;;;;;4983453;28;20036;-81
2021/12/06 12:47:30;;;;;;;32.17;17.25;;;4.00;99.90;;;;;;5019627;28;20053;-82
2021/12/06 12:49:59;;;;;;;29.70;16.08;;;4.10;99.90;;;;;;5016302;28;20140;-81
2021/12/06 12:52:47;;;;;;;30.05;16.58;;;4.10;99.90;;;;;;5032874;28;20058;-81
2021/12/06 12:55:41;;;;;;;30.02;17.35;;;4.00;99.90;;;;;;5005761;28;20116;-81
2021/12/06 12:58:13;;;;;;;33.15;17.02;;;4.00;99.90;;;;;;5016260;28;20042;-81
2021/12/06 13:01:07;;;;;;;29.10;16.02;;;4.10;99.90;;;;;;5034089;28;20033;-81
2021/12/06 13:03:49;;;;;;;32.80;16.73;;;4.00;99.90;;;;;;5032049;28;20045;-81